sensor_id;sensor_type;location;lat;lon;timestamp;P1;durP1;ratioP1;P2;durP2;ratioP2
20653;SDS011;21083;50.898;4.902;2022-07-04T00:01:42;6.40;;;1.80;;
20653;SDS011;21083;50.898;4.902;2022-07-04T00:04:10;3.08;;;1.27;;
20653;SDS011;21083;50.898;4.902;2022-07-04T00:06:37;4.18;;;1.50;;
20653;SDS011;21083;50.898;4.902;2022-07-04T00:09:04;5.95;;;1.58;;
20653;SDS011;21083;50.898;4.902;2022-07-04T00:11:31;4.47;;;1.27;;
20653;SDS011;21083;50.898;4.902;2022-07-04T00:13:58;6.45;;;1.67;;
20653;SDS011;21083;50.898;4.902;2022-07-04T00:16:25;2.63;;;1.20;;
20653;SDS011;21083;50.898;4.902;2022-07-04T00:18:52;5.13;;;1.17;;
20653;SDS011;21083;50.898;4.902;2022-07-04T00:21:20;4.65;;;1.17;;
20653;SDS011;21083;50.898;4.902;2022-07-04T00:23:47;5.38;;;1.80;;
20653;SDS011;21083;50.898;4.902;2022-07-04T00:26:15;7.03;;;1.67;;
20653;SDS011;21083;50.898;4.902;2022-07-04T00:28:42;5.03;;;1.52;;
20653;SDS011;21083;50.898;4.902;2022-07-04T00:31:09;6.28;;;1.60;;
20653;SDS011;21083;50.898;4.902;2022-07-04T00:33:36;9.10;;;1.58;;
20653;SDS011;21083;50.898;4.902;2022-07-04T00:36:03;6.80;;;1.40;;
20653;SDS011;21083;50.898;4.902;2022-07-04T00:38:32;8.70;;;1.98;;
20653;SDS011;21083;50.898;4.902;2022-07-04T00:40:58;7.07;;;1.75;;
20653;SDS011;21083;50.898;4.902;2022-07-04T00:43:26;7.95;;;1.50;;
20653;SDS011;21083;50.898;4.902;2022-07-04T00:45:54;7.30;;;1.52;;
20653;SDS011;21083;50.898;4.902;2022-07-04T00:48:20;4.05;;;1.33;;
20653;SDS011;21083;50.898;4.902;2022-07-04T00:50:48;6.63;;;1.63;;
20653;SDS011;21083;50.898;4.902;2022-07-04T00:53:15;6.85;;;1.77;;
20653;SDS011;21083;50.898;4.902;2022-07-04T00:55:46;4.50;;;1.50;;
20653;SDS011;21083;50.898;4.902;2022-07-04T00:58:13;5.25;;;1.70;;
20653;SDS011;21083;50.898;4.902;2022-07-04T01:00:40;7.78;;;1.83;;
20653;SDS011;21083;50.898;4.902;2022-07-04T01:03:07;11.32;;;1.77;;
20653;SDS011;21083;50.898;4.902;2022-07-04T01:05:34;5.88;;;1.67;;
20653;SDS011;21083;50.898;4.902;2022-07-04T01:08:01;6.70;;;1.65;;
20653;SDS011;21083;50.898;4.902;2022-07-04T01:10:29;4.57;;;1.52;;
20653;SDS011;21083;50.898;4.902;2022-07-04T01:12:57;6.18;;;1.52;;
20653;SDS011;21083;50.898;4.902;2022-07-04T01:15:24;2.97;;;1.33;;
20653;SDS011;21083;50.898;4.902;2022-07-04T01:17:51;5.43;;;1.60;;
20653;SDS011;21083;50.898;4.902;2022-07-04T01:20:19;6.15;;;1.60;;
20653;SDS011;21083;50.898;4.902;2022-07-04T01:22:47;9.70;;;1.65;;
20653;SDS011;21083;50.898;4.902;2022-07-04T01:25:14;5.80;;;1.33;;
20653;SDS011;21083;50.898;4.902;2022-07-04T01:27:41;4.53;;;1.25;;
20653;SDS011;21083;50.898;4.902;2022-07-04T01:30:09;7.70;;;1.83;;
20653;SDS011;21083;50.898;4.902;2022-07-04T01:32:36;6.25;;;1.58;;
20653;SDS011;21083;50.898;4.902;2022-07-04T01:35:04;5.82;;;1.58;;
20653;SDS011;21083;50.898;4.902;2022-07-04T01:37:33;5.50;;;1.70;;
20653;SDS011;21083;50.898;4.902;2022-07-04T01:40:00;3.90;;;1.65;;
20653;SDS011;21083;50.898;4.902;2022-07-04T01:42:27;5.05;;;1.70;;
20653;SDS011;21083;50.898;4.902;2022-07-04T01:44:54;6.18;;;1.65;;
20653;SDS011;21083;50.898;4.902;2022-07-04T01:47:21;5.43;;;1.50;;
20653;SDS011;21083;50.898;4.902;2022-07-04T01:49:48;4.93;;;1.48;;
20653;SDS011;21083;50.898;4.902;2022-07-04T01:52:15;3.83;;;1.48;;
20653;SDS011;21083;50.898;4.902;2022-07-04T01:54:43;6.53;;;1.58;;
20653;SDS011;21083;50.898;4.902;2022-07-04T01:57:10;6.60;;;1.45;;
20653;SDS011;21083;50.898;4.902;2022-07-04T01:59:38;8.18;;;1.73;;
20653;SDS011;21083;50.898;4.902;2022-07-04T02:02:23;4.72;;;1.50;;
20653;SDS011;21083;50.898;4.902;2022-07-04T02:04:50;6.43;;;1.60;;
20653;SDS011;21083;50.898;4.902;2022-07-04T02:07:17;4.93;;;1.55;;
20653;SDS011;21083;50.898;4.902;2022-07-04T02:09:45;5.47;;;2.05;;
20653;SDS011;21083;50.898;4.902;2022-07-04T02:12:12;6.47;;;1.45;;
20653;SDS011;21083;50.898;4.902;2022-07-04T02:14:57;3.35;;;1.20;;
20653;SDS011;21083;50.898;4.902;2022-07-04T02:17:24;6.00;;;1.60;;
20653;SDS011;21083;50.898;4.902;2022-07-04T02:19:51;3.65;;;1.48;;
20653;SDS011;21083;50.898;4.902;2022-07-04T02:22:18;5.53;;;1.48;;
20653;SDS011;21083;50.898;4.902;2022-07-04T02:24:46;6.22;;;1.95;;
20653;SDS011;21083;50.898;4.902;2022-07-04T02:27:14;4.38;;;1.73;;
20653;SDS011;21083;50.898;4.902;2022-07-04T02:29:41;4.90;;;1.98;;
20653;SDS011;21083;50.898;4.902;2022-07-04T02:32:08;3.05;;;1.40;;
20653;SDS011;21083;50.898;4.902;2022-07-04T02:34:36;6.35;;;1.50;;
20653;SDS011;21083;50.898;4.902;2022-07-04T02:37:03;3.80;;;1.40;;
20653;SDS011;21083;50.898;4.902;2022-07-04T02:39:30;8.23;;;1.85;;
20653;SDS011;21083;50.898;4.902;2022-07-04T02:41:58;7.53;;;2.45;;
20653;SDS011;21083;50.898;4.902;2022-07-04T02:44:25;7.75;;;2.33;;
20653;SDS011;21083;50.898;4.902;2022-07-04T02:46:52;6.80;;;2.25;;
20653;SDS011;21083;50.898;4.902;2022-07-04T02:49:19;9.55;;;3.17;;
20653;SDS011;21083;50.898;4.902;2022-07-04T02:51:46;7.22;;;2.85;;
20653;SDS011;21083;50.898;4.902;2022-07-04T02:54:13;8.18;;;2.60;;
20653;SDS011;21083;50.898;4.902;2022-07-04T02:56:40;7.38;;;2.55;;
20653;SDS011;21083;50.898;4.902;2022-07-04T02:59:09;9.98;;;2.40;;
20653;SDS011;21083;50.898;4.902;2022-07-04T03:01:36;7.68;;;2.58;;
20653;SDS011;21083;50.898;4.902;2022-07-04T03:04:03;9.40;;;2.70;;
20653;SDS011;21083;50.898;4.902;2022-07-04T03:06:30;6.97;;;2.40;;
20653;SDS011;21083;50.898;4.902;2022-07-04T03:08:57;9.57;;;2.55;;
20653;SDS011;21083;50.898;4.902;2022-07-04T03:11:24;8.15;;;2.88;;
20653;SDS011;21083;50.898;4.902;2022-07-04T03:13:51;13.77;;;3.03;;
20653;SDS011;21083;50.898;4.902;2022-07-04T03:16:19;10.75;;;3.00;;
20653;SDS011;21083;50.898;4.902;2022-07-04T03:18:46;8.85;;;2.80;;
20653;SDS011;21083;50.898;4.902;2022-07-04T03:21:13;6.47;;;2.55;;
20653;SDS011;21083;50.898;4.902;2022-07-04T03:23:40;10.85;;;3.00;;
20653;SDS011;21083;50.898;4.902;2022-07-04T03:26:07;10.77;;;3.05;;
20653;SDS011;21083;50.898;4.902;2022-07-04T03:28:34;8.65;;;2.45;;
20653;SDS011;21083;50.898;4.902;2022-07-04T03:31:01;20.02;;;3.53;;
20653;SDS011;21083;50.898;4.902;2022-07-04T03:33:29;8.02;;;2.65;;
20653;SDS011;21083;50.898;4.902;2022-07-04T03:35:56;6.93;;;2.47;;
20653;SDS011;21083;50.898;4.902;2022-07-04T03:38:23;9.77;;;3.60;;
20653;SDS011;21083;50.898;4.902;2022-07-04T03:40:50;8.80;;;2.47;;
20653;SDS011;21083;50.898;4.902;2022-07-04T03:43:17;8.43;;;2.80;;
20653;SDS011;21083;50.898;4.902;2022-07-04T03:45:44;6.50;;;2.78;;
20653;SDS011;21083;50.898;4.902;2022-07-04T03:48:11;6.10;;;2.60;;
20653;SDS011;21083;50.898;4.902;2022-07-04T03:50:39;8.90;;;2.38;;
20653;SDS011;21083;50.898;4.902;2022-07-04T03:53:06;13.10;;;2.97;;
20653;SDS011;21083;50.898;4.902;2022-07-04T03:55:33;11.80;;;2.90;;
20653;SDS011;21083;50.898;4.902;2022-07-04T03:58:00;7.85;;;2.35;;
20653;SDS011;21083;50.898;4.902;2022-07-04T04:00:29;7.50;;;2.70;;
20653;SDS011;21083;50.898;4.902;2022-07-04T04:02:56;12.73;;;2.47;;
20653;SDS011;21083;50.898;4.902;2022-07-04T04:05:23;13.15;;;2.85;;
20653;SDS011;21083;50.898;4.902;2022-07-04T04:07:55;8.23;;;2.45;;
20653;SDS011;21083;50.898;4.902;2022-07-04T04:10:23;8.98;;;2.80;;
20653;SDS011;21083;50.898;4.902;2022-07-04T04:12:51;9.18;;;2.40;;
20653;SDS011;21083;50.898;4.902;2022-07-04T04:15:18;10.68;;;2.53;;
20653;SDS011;21083;50.898;4.902;2022-07-04T04:17:45;10.85;;;2.70;;
20653;SDS011;21083;50.898;4.902;2022-07-04T04:20:12;8.07;;;2.67;;
20653;SDS011;21083;50.898;4.902;2022-07-04T04:22:39;5.85;;;2.40;;
20653;SDS011;21083;50.898;4.902;2022-07-04T04:25:08;11.82;;;3.20;;
20653;SDS011;21083;50.898;4.902;2022-07-04T04:27:35;9.07;;;2.85;;
20653;SDS011;21083;50.898;4.902;2022-07-04T04:30:02;7.50;;;2.40;;
20653;SDS011;21083;50.898;4.902;2022-07-04T04:32:30;8.07;;;2.60;;
20653;SDS011;21083;50.898;4.902;2022-07-04T04:34:57;9.15;;;2.30;;
20653;SDS011;21083;50.898;4.902;2022-07-04T04:37:24;9.68;;;2.38;;
20653;SDS011;21083;50.898;4.902;2022-07-04T04:39:51;10.63;;;2.28;;
20653;SDS011;21083;50.898;4.902;2022-07-04T04:42:19;8.73;;;2.28;;
20653;SDS011;21083;50.898;4.902;2022-07-04T04:44:46;6.22;;;2.17;;
20653;SDS011;21083;50.898;4.902;2022-07-04T04:47:13;5.28;;;1.92;;
20653;SDS011;21083;50.898;4.902;2022-07-04T04:49:40;11.18;;;2.45;;
20653;SDS011;21083;50.898;4.902;2022-07-04T04:52:07;7.68;;;2.08;;
20653;SDS011;21083;50.898;4.902;2022-07-04T04:54:35;8.07;;;2.42;;
20653;SDS011;21083;50.898;4.902;2022-07-04T04:57:02;5.13;;;2.00;;
20653;SDS011;21083;50.898;4.902;2022-07-04T04:59:31;12.82;;;2.42;;
20653;SDS011;21083;50.898;4.902;2022-07-04T05:01:59;13.13;;;2.70;;
20653;SDS011;21083;50.898;4.902;2022-07-04T05:04:26;8.18;;;2.28;;
20653;SDS011;21083;50.898;4.902;2022-07-04T05:06:53;11.63;;;2.55;;
20653;SDS011;21083;50.898;4.902;2022-07-04T05:09:21;7.00;;;2.55;;
20653;SDS011;21083;50.898;4.902;2022-07-04T05:11:48;11.93;;;2.50;;
20653;SDS011;21083;50.898;4.902;2022-07-04T05:14:15;8.25;;;2.70;;
20653;SDS011;21083;50.898;4.902;2022-07-04T05:16:44;10.98;;;2.72;;
20653;SDS011;21083;50.898;4.902;2022-07-04T05:19:11;8.70;;;2.17;;
20653;SDS011;21083;50.898;4.902;2022-07-04T05:21:38;7.43;;;2.33;;
20653;SDS011;21083;50.898;4.902;2022-07-04T05:24:05;5.93;;;2.15;;
20653;SDS011;21083;50.898;4.902;2022-07-04T05:26:32;10.75;;;2.40;;
20653;SDS011;21083;50.898;4.902;2022-07-04T05:28:59;12.65;;;2.42;;
20653;SDS011;21083;50.898;4.902;2022-07-04T05:31:26;8.88;;;2.20;;
20653;SDS011;21083;50.898;4.902;2022-07-04T05:33:55;9.73;;;2.47;;
20653;SDS011;21083;50.898;4.902;2022-07-04T05:36:22;7.38;;;2.10;;
20653;SDS011;21083;50.898;4.902;2022-07-04T05:38:50;7.25;;;1.90;;
20653;SDS011;21083;50.898;4.902;2022-07-04T05:41:17;8.50;;;2.30;;
20653;SDS011;21083;50.898;4.902;2022-07-04T05:43:44;10.20;;;2.80;;
20653;SDS011;21083;50.898;4.902;2022-07-04T05:46:11;7.28;;;2.20;;
20653;SDS011;21083;50.898;4.902;2022-07-04T05:48:38;8.07;;;2.08;;
20653;SDS011;21083;50.898;4.902;2022-07-04T05:51:06;7.20;;;2.00;;
20653;SDS011;21083;50.898;4.902;2022-07-04T05:53:33;5.00;;;1.90;;
20653;SDS011;21083;50.898;4.902;2022-07-04T05:56:00;9.60;;;2.35;;
20653;SDS011;21083;50.898;4.902;2022-07-04T05:58:27;7.63;;;1.77;;
20653;SDS011;21083;50.898;4.902;2022-07-04T06:00:54;7.00;;;2.30;;
20653;SDS011;21083;50.898;4.902;2022-07-04T06:03:21;7.88;;;2.22;;
20653;SDS011;21083;50.898;4.902;2022-07-04T06:05:48;8.20;;;2.35;;
20653;SDS011;21083;50.898;4.902;2022-07-04T06:08:16;10.90;;;2.10;;
20653;SDS011;21083;50.898;4.902;2022-07-04T06:10:43;7.13;;;2.30;;
20653;SDS011;21083;50.898;4.902;2022-07-04T06:13:11;7.55;;;2.30;;
20653;SDS011;21083;50.898;4.902;2022-07-04T06:15:37;9.77;;;2.28;;
20653;SDS011;21083;50.898;4.902;2022-07-04T06:18:04;6.20;;;1.75;;
20653;SDS011;21083;50.898;4.902;2022-07-04T06:20:31;10.98;;;2.63;;
20653;SDS011;21083;50.898;4.902;2022-07-04T06:22:58;12.32;;;2.55;;
20653;SDS011;21083;50.898;4.902;2022-07-04T06:25:27;6.18;;;2.03;;
20653;SDS011;21083;50.898;4.902;2022-07-04T06:27:54;9.52;;;2.28;;
20653;SDS011;21083;50.898;4.902;2022-07-04T06:30:21;14.52;;;2.95;;
20653;SDS011;21083;50.898;4.902;2022-07-04T06:32:48;10.18;;;2.72;;
20653;SDS011;21083;50.898;4.902;2022-07-04T06:35:17;7.78;;;2.03;;
20653;SDS011;21083;50.898;4.902;2022-07-04T06:38:03;7.68;;;2.40;;
20653;SDS011;21083;50.898;4.902;2022-07-04T06:40:32;8.27;;;2.67;;
20653;SDS011;21083;50.898;4.902;2022-07-04T06:42:59;6.03;;;1.90;;
20653;SDS011;21083;50.898;4.902;2022-07-04T06:45:26;12.70;;;2.20;;
20653;SDS011;21083;50.898;4.902;2022-07-04T06:47:53;7.65;;;2.10;;
20653;SDS011;21083;50.898;4.902;2022-07-04T06:50:20;9.68;;;1.98;;
20653;SDS011;21083;50.898;4.902;2022-07-04T06:52:48;11.70;;;2.50;;
20653;SDS011;21083;50.898;4.902;2022-07-04T06:55:15;7.43;;;1.73;;
20653;SDS011;21083;50.898;4.902;2022-07-04T06:58:02;8.80;;;2.10;;
20653;SDS011;21083;50.898;4.902;2022-07-04T07:00:29;5.95;;;1.60;;
20653;SDS011;21083;50.898;4.902;2022-07-04T07:02:56;7.97;;;1.40;;
20653;SDS011;21083;50.898;4.902;2022-07-04T07:05:24;8.93;;;1.63;;
20653;SDS011;21083;50.898;4.902;2022-07-04T07:07:51;7.43;;;1.67;;
20653;SDS011;21083;50.898;4.902;2022-07-04T07:10:18;6.32;;;1.55;;
20653;SDS011;21083;50.898;4.902;2022-07-04T07:12:45;10.52;;;1.70;;
20653;SDS011;21083;50.898;4.902;2022-07-04T07:15:14;6.63;;;1.30;;
20653;SDS011;21083;50.898;4.902;2022-07-04T07:17:42;7.00;;;1.20;;
20653;SDS011;21083;50.898;4.902;2022-07-04T07:20:09;8.18;;;2.05;;
20653;SDS011;21083;50.898;4.902;2022-07-04T07:22:38;9.02;;;1.70;;
20653;SDS011;21083;50.898;4.902;2022-07-04T07:25:05;7.00;;;1.70;;
20653;SDS011;21083;50.898;4.902;2022-07-04T07:27:33;8.98;;;1.90;;
20653;SDS011;21083;50.898;4.902;2022-07-04T07:30:00;5.53;;;1.80;;
20653;SDS011;21083;50.898;4.902;2022-07-04T07:32:28;5.18;;;1.73;;
20653;SDS011;21083;50.898;4.902;2022-07-04T07:34:55;6.43;;;1.58;;
20653;SDS011;21083;50.898;4.902;2022-07-04T07:37:21;8.80;;;2.08;;
20653;SDS011;21083;50.898;4.902;2022-07-04T07:39:48;6.78;;;2.25;;
20653;SDS011;21083;50.898;4.902;2022-07-04T07:42:16;5.07;;;1.45;;
20653;SDS011;21083;50.898;4.902;2022-07-04T07:44:43;11.98;;;1.60;;
20653;SDS011;21083;50.898;4.902;2022-07-04T07:47:11;5.68;;;1.58;;
20653;SDS011;21083;50.898;4.902;2022-07-04T07:49:40;8.07;;;1.70;;
20653;SDS011;21083;50.898;4.902;2022-07-04T07:52:07;8.68;;;1.77;;
20653;SDS011;21083;50.898;4.902;2022-07-04T07:54:34;6.28;;;1.33;;
20653;SDS011;21083;50.898;4.902;2022-07-04T07:57:01;5.47;;;1.50;;
20653;SDS011;21083;50.898;4.902;2022-07-04T07:59:28;7.15;;;1.55;;
20653;SDS011;21083;50.898;4.902;2022-07-04T08:01:55;5.25;;;1.50;;
20653;SDS011;21083;50.898;4.902;2022-07-04T08:04:22;3.63;;;1.08;;
20653;SDS011;21083;50.898;4.902;2022-07-04T08:07:01;7.57;;;1.55;;
20653;SDS011;21083;50.898;4.902;2022-07-04T08:09:28;7.28;;;1.95;;
20653;SDS011;21083;50.898;4.902;2022-07-04T08:11:56;13.77;;;2.05;;
20653;SDS011;21083;50.898;4.902;2022-07-04T08:14:23;7.45;;;1.23;;
20653;SDS011;21083;50.898;4.902;2022-07-04T08:16:50;6.72;;;1.10;;
20653;SDS011;21083;50.898;4.902;2022-07-04T08:19:18;6.78;;;1.20;;
20653;SDS011;21083;50.898;4.902;2022-07-04T08:21:44;9.00;;;0.98;;
20653;SDS011;21083;50.898;4.902;2022-07-04T08:24:14;5.78;;;0.90;;
20653;SDS011;21083;50.898;4.902;2022-07-04T08:26:42;3.88;;;0.93;;
20653;SDS011;21083;50.898;4.902;2022-07-04T08:29:18;4.15;;;1.00;;
20653;SDS011;21083;50.898;4.902;2022-07-04T08:31:45;2.70;;;0.90;;
20653;SDS011;21083;50.898;4.902;2022-07-04T08:34:13;3.97;;;0.88;;
20653;SDS011;21083;50.898;4.902;2022-07-04T08:36:40;4.07;;;0.90;;
20653;SDS011;21083;50.898;4.902;2022-07-04T08:39:07;5.00;;;0.93;;
20653;SDS011;21083;50.898;4.902;2022-07-04T08:41:37;4.82;;;1.13;;
20653;SDS011;21083;50.898;4.902;2022-07-04T08:44:07;5.78;;;0.70;;
20653;SDS011;21083;50.898;4.902;2022-07-04T08:46:37;5.85;;;1.27;;
20653;SDS011;21083;50.898;4.902;2022-07-04T08:49:14;11.35;;;1.25;;
20653;SDS011;21083;50.898;4.902;2022-07-04T08:51:47;7.35;;;1.20;;
20653;SDS011;21083;50.898;4.902;2022-07-04T08:54:19;3.15;;;0.80;;
20653;SDS011;21083;50.898;4.902;2022-07-04T08:57:08;6.18;;;0.93;;
20653;SDS011;21083;50.898;4.902;2022-07-04T08:59:56;5.32;;;0.68;;
20653;SDS011;21083;50.898;4.902;2022-07-04T09:02:23;6.88;;;1.08;;
20653;SDS011;21083;50.898;4.902;2022-07-04T09:04:52;9.00;;;1.42;;
20653;SDS011;21083;50.898;4.902;2022-07-04T09:07:19;5.55;;;1.10;;
20653;SDS011;21083;50.898;4.902;2022-07-04T09:09:46;2.15;;;0.68;;
20653;SDS011;21083;50.898;4.902;2022-07-04T09:12:14;3.95;;;0.70;;
20653;SDS011;21083;50.898;4.902;2022-07-04T09:14:41;3.88;;;0.90;;
20653;SDS011;21083;50.898;4.902;2022-07-04T09:17:08;4.78;;;0.85;;
20653;SDS011;21083;50.898;4.902;2022-07-04T09:19:35;3.42;;;0.70;;
20653;SDS011;21083;50.898;4.902;2022-07-04T09:22:03;2.80;;;0.70;;
20653;SDS011;21083;50.898;4.902;2022-07-04T09:24:44;5.22;;;0.88;;
20653;SDS011;21083;50.898;4.902;2022-07-04T09:27:15;4.05;;;0.70;;
20653;SDS011;21083;50.898;4.902;2022-07-04T09:29:55;2.70;;;0.73;;
20653;SDS011;21083;50.898;4.902;2022-07-04T09:32:35;6.03;;;1.02;;
20653;SDS011;21083;50.898;4.902;2022-07-04T09:35:03;3.08;;;0.70;;
20653;SDS011;21083;50.898;4.902;2022-07-04T09:37:36;4.57;;;0.70;;
20653;SDS011;21083;50.898;4.902;2022-07-04T09:40:06;5.18;;;0.80;;
20653;SDS011;21083;50.898;4.902;2022-07-04T09:42:40;4.00;;;0.70;;
20653;SDS011;21083;50.898;4.902;2022-07-04T09:45:08;6.57;;;1.10;;
20653;SDS011;21083;50.898;4.902;2022-07-04T09:47:37;8.05;;;1.00;;
20653;SDS011;21083;50.898;4.902;2022-07-04T09:50:05;5.93;;;1.23;;
20653;SDS011;21083;50.898;4.902;2022-07-04T09:55:25;2.90;;;0.60;;
20653;SDS011;21083;50.898;4.902;2022-07-04T09:57:55;6.50;;;0.90;;
20653;SDS011;21083;50.898;4.902;2022-07-04T10:00:24;7.70;;;1.60;;
20653;SDS011;21083;50.898;4.902;2022-07-04T10:02:53;3.17;;;0.70;;
20653;SDS011;21083;50.898;4.902;2022-07-04T10:05:21;7.55;;;1.00;;
20653;SDS011;21083;50.898;4.902;2022-07-04T10:07:50;2.67;;;0.88;;
20653;SDS011;21083;50.898;4.902;2022-07-04T10:10:30;4.35;;;1.10;;
20653;SDS011;21083;50.898;4.902;2022-07-04T10:13:01;5.70;;;0.68;;
20653;SDS011;21083;50.898;4.902;2022-07-04T10:15:30;5.95;;;1.05;;
20653;SDS011;21083;50.898;4.902;2022-07-04T10:17:57;5.93;;;0.90;;
20653;SDS011;21083;50.898;4.902;2022-07-04T10:20:25;3.42;;;0.77;;
20653;SDS011;21083;50.898;4.902;2022-07-04T10:22:52;2.97;;;0.73;;
20653;SDS011;21083;50.898;4.902;2022-07-04T10:25:19;6.38;;;1.02;;
20653;SDS011;21083;50.898;4.902;2022-07-04T10:27:46;3.47;;;0.93;;
20653;SDS011;21083;50.898;4.902;2022-07-04T10:30:17;3.65;;;0.88;;
20653;SDS011;21083;50.898;4.902;2022-07-04T10:32:48;5.05;;;0.75;;
20653;SDS011;21083;50.898;4.902;2022-07-04T10:35:16;4.60;;;0.90;;
20653;SDS011;21083;50.898;4.902;2022-07-04T10:37:59;4.60;;;0.80;;
20653;SDS011;21083;50.898;4.902;2022-07-04T10:46:32;2.22;;;0.65;;
20653;SDS011;21083;50.898;4.902;2022-07-04T10:49:05;7.90;;;1.20;;
20653;SDS011;21083;50.898;4.902;2022-07-04T10:51:43;4.05;;;0.95;;
20653;SDS011;21083;50.898;4.902;2022-07-04T10:54:12;6.10;;;1.00;;
20653;SDS011;21083;50.898;4.902;2022-07-04T10:56:44;3.47;;;0.80;;
20653;SDS011;21083;50.898;4.902;2022-07-04T10:59:23;7.93;;;1.25;;
20653;SDS011;21083;50.898;4.902;2022-07-04T11:01:56;5.03;;;1.20;;
20653;SDS011;21083;50.898;4.902;2022-07-04T11:04:52;4.75;;;0.70;;
20653;SDS011;21083;50.898;4.902;2022-07-04T11:07:21;3.65;;;0.88;;
20653;SDS011;21083;50.898;4.902;2022-07-04T11:13:01;7.68;;;1.00;;
20653;SDS011;21083;50.898;4.902;2022-07-04T11:16:03;6.07;;;0.90;;
20653;SDS011;21083;50.898;4.902;2022-07-04T11:18:44;5.28;;;0.82;;
20653;SDS011;21083;50.898;4.902;2022-07-04T11:21:18;4.40;;;1.20;;
20653;SDS011;21083;50.898;4.902;2022-07-04T11:23:50;6.32;;;1.10;;
20653;SDS011;21083;50.898;4.902;2022-07-04T11:26:21;3.28;;;0.77;;
20653;SDS011;21083;50.898;4.902;2022-07-04T11:28:48;4.95;;;1.10;;
20653;SDS011;21083;50.898;4.902;2022-07-04T11:31:16;2.38;;;0.75;;
20653;SDS011;21083;50.898;4.902;2022-07-04T11:33:44;2.80;;;0.70;;
20653;SDS011;21083;50.898;4.902;2022-07-04T11:36:14;7.72;;;0.93;;
20653;SDS011;21083;50.898;4.902;2022-07-04T11:38:49;5.97;;;1.15;;
20653;SDS011;21083;50.898;4.902;2022-07-04T11:41:20;7.05;;;1.35;;
20653;SDS011;21083;50.898;4.902;2022-07-04T11:44:07;1.50;;;0.70;;
20653;SDS011;21083;50.898;4.902;2022-07-04T11:49:46;2.90;;;1.00;;
20653;SDS011;21083;50.898;4.902;2022-07-04T11:52:16;4.00;;;0.90;;
20653;SDS011;21083;50.898;4.902;2022-07-04T11:54:44;6.60;;;1.10;;
20653;SDS011;21083;50.898;4.902;2022-07-04T11:57:14;4.95;;;1.20;;
20653;SDS011;21083;50.898;4.902;2022-07-04T11:59:56;4.57;;;1.00;;
20653;SDS011;21083;50.898;4.902;2022-07-04T12:02:25;3.60;;;0.85;;
20653;SDS011;21083;50.898;4.902;2022-07-04T12:04:55;6.68;;;1.00;;
20653;SDS011;21083;50.898;4.902;2022-07-04T12:07:23;5.07;;;1.13;;
20653;SDS011;21083;50.898;4.902;2022-07-04T12:09:54;5.30;;;1.00;;
20653;SDS011;21083;50.898;4.902;2022-07-04T12:12:22;10.25;;;1.45;;
20653;SDS011;21083;50.898;4.902;2022-07-04T12:14:56;3.08;;;1.05;;
20653;SDS011;21083;50.898;4.902;2022-07-04T12:17:28;6.30;;;1.30;;
20653;SDS011;21083;50.898;4.902;2022-07-04T12:19:58;7.00;;;1.55;;
20653;SDS011;21083;50.898;4.902;2022-07-04T12:22:36;7.78;;;2.00;;
20653;SDS011;21083;50.898;4.902;2022-07-04T12:25:04;5.70;;;1.63;;
20653;SDS011;21083;50.898;4.902;2022-07-04T12:27:35;6.00;;;2.08;;
20653;SDS011;21083;50.898;4.902;2022-07-04T12:30:02;6.90;;;2.33;;
20653;SDS011;21083;50.898;4.902;2022-07-04T12:32:48;9.98;;;3.20;;
20653;SDS011;21083;50.898;4.902;2022-07-04T12:35:36;8.30;;;2.80;;
20653;SDS011;21083;50.898;4.902;2022-07-04T12:38:06;12.48;;;3.15;;
20653;SDS011;21083;50.898;4.902;2022-07-04T12:40:35;6.47;;;1.70;;
20653;SDS011;21083;50.898;4.902;2022-07-04T12:43:03;7.35;;;1.65;;
20653;SDS011;21083;50.898;4.902;2022-07-04T12:45:43;7.25;;;1.55;;
20653;SDS011;21083;50.898;4.902;2022-07-04T12:48:18;11.93;;;1.58;;
20653;SDS011;21083;50.898;4.902;2022-07-04T12:50:49;4.55;;;1.25;;
20653;SDS011;21083;50.898;4.902;2022-07-04T12:53:17;5.03;;;1.45;;
20653;SDS011;21083;50.898;4.902;2022-07-04T12:55:45;9.05;;;1.60;;
20653;SDS011;21083;50.898;4.902;2022-07-04T12:58:13;6.75;;;1.27;;
20653;SDS011;21083;50.898;4.902;2022-07-04T13:00:40;5.47;;;1.58;;
20653;SDS011;21083;50.898;4.902;2022-07-04T13:03:07;5.43;;;1.40;;
20653;SDS011;21083;50.898;4.902;2022-07-04T13:05:35;7.38;;;2.72;;
20653;SDS011;21083;50.898;4.902;2022-07-04T13:08:04;6.63;;;2.00;;
20653;SDS011;21083;50.898;4.902;2022-07-04T13:10:31;9.73;;;2.15;;
20653;SDS011;21083;50.898;4.902;2022-07-04T13:12:59;5.05;;;1.15;;
20653;SDS011;21083;50.898;4.902;2022-07-04T13:15:26;7.07;;;1.65;;
20653;SDS011;21083;50.898;4.902;2022-07-04T13:17:53;5.82;;;1.38;;
20653;SDS011;21083;50.898;4.902;2022-07-04T13:20:20;6.10;;;1.30;;
20653;SDS011;21083;50.898;4.902;2022-07-04T13:22:47;5.68;;;1.30;;
20653;SDS011;21083;50.898;4.902;2022-07-04T13:25:15;6.30;;;1.23;;
20653;SDS011;21083;50.898;4.902;2022-07-04T13:27:42;2.40;;;1.00;;
20653;SDS011;21083;50.898;4.902;2022-07-04T13:30:09;4.68;;;1.00;;
20653;SDS011;21083;50.898;4.902;2022-07-04T13:32:38;4.35;;;1.17;;
20653;SDS011;21083;50.898;4.902;2022-07-04T13:35:05;7.15;;;1.52;;
20653;SDS011;21083;50.898;4.902;2022-07-04T13:37:32;4.75;;;1.15;;
20653;SDS011;21083;50.898;4.902;2022-07-04T13:39:59;7.13;;;1.33;;
20653;SDS011;21083;50.898;4.902;2022-07-04T13:42:27;4.47;;;1.27;;
20653;SDS011;21083;50.898;4.902;2022-07-04T13:45:13;5.40;;;1.23;;
20653;SDS011;21083;50.898;4.902;2022-07-04T13:47:42;7.40;;;1.73;;
20653;SDS011;21083;50.898;4.902;2022-07-04T13:50:14;3.25;;;1.20;;
20653;SDS011;21083;50.898;4.902;2022-07-04T13:52:41;3.15;;;0.93;;
20653;SDS011;21083;50.898;4.902;2022-07-04T13:55:10;5.43;;;1.10;;
20653;SDS011;21083;50.898;4.902;2022-07-04T13:57:39;5.28;;;1.00;;
20653;SDS011;21083;50.898;4.902;2022-07-04T14:00:06;3.97;;;0.88;;
20653;SDS011;21083;50.898;4.902;2022-07-04T14:02:35;5.38;;;1.15;;
20653;SDS011;21083;50.898;4.902;2022-07-04T14:05:02;6.47;;;1.05;;
20653;SDS011;21083;50.898;4.902;2022-07-04T14:07:30;4.00;;;0.80;;
20653;SDS011;21083;50.898;4.902;2022-07-04T14:09:58;6.63;;;1.27;;
20653;SDS011;21083;50.898;4.902;2022-07-04T14:12:25;2.65;;;0.68;;
20653;SDS011;21083;50.898;4.902;2022-07-04T14:14:54;6.10;;;0.90;;
20653;SDS011;21083;50.898;4.902;2022-07-04T14:17:27;5.53;;;1.10;;
20653;SDS011;21083;50.898;4.902;2022-07-04T14:19:56;3.92;;;0.85;;
20653;SDS011;21083;50.898;4.902;2022-07-04T14:22:23;7.07;;;1.15;;
20653;SDS011;21083;50.898;4.902;2022-07-04T14:24:50;6.55;;;1.77;;
20653;SDS011;21083;50.898;4.902;2022-07-04T14:27:17;5.65;;;1.50;;
20653;SDS011;21083;50.898;4.902;2022-07-04T14:29:46;8.02;;;1.52;;
20653;SDS011;21083;50.898;4.902;2022-07-04T14:32:15;9.20;;;1.35;;
20653;SDS011;21083;50.898;4.902;2022-07-04T14:34:43;7.57;;;1.48;;
20653;SDS011;21083;50.898;4.902;2022-07-04T14:37:10;4.00;;;1.15;;
20653;SDS011;21083;50.898;4.902;2022-07-04T14:39:37;4.88;;;1.30;;
20653;SDS011;21083;50.898;4.902;2022-07-04T14:42:04;7.30;;;1.30;;
20653;SDS011;21083;50.898;4.902;2022-07-04T14:44:31;4.40;;;0.90;;
20653;SDS011;21083;50.898;4.902;2022-07-04T14:47:01;3.28;;;1.15;;
20653;SDS011;21083;50.898;4.902;2022-07-04T14:49:29;3.50;;;0.77;;
20653;SDS011;21083;50.898;4.902;2022-07-04T14:51:56;4.88;;;0.93;;
20653;SDS011;21083;50.898;4.902;2022-07-04T14:54:23;2.20;;;0.88;;
20653;SDS011;21083;50.898;4.902;2022-07-04T14:56:51;5.93;;;1.40;;
20653;SDS011;21083;50.898;4.902;2022-07-04T14:59:17;3.65;;;0.70;;
20653;SDS011;21083;50.898;4.902;2022-07-04T15:01:45;2.00;;;0.80;;
20653;SDS011;21083;50.898;4.902;2022-07-04T15:04:12;4.50;;;1.52;;
20653;SDS011;21083;50.898;4.902;2022-07-04T15:06:40;3.00;;;0.70;;
20653;SDS011;21083;50.898;4.902;2022-07-04T15:09:07;3.60;;;0.93;;
20653;SDS011;21083;50.898;4.902;2022-07-04T15:11:35;3.97;;;0.77;;